sensor_id;sensor_type;location;lat;lon;timestamp;pressure;altitude;pressure_sealevel;temperature;humidity
54321;BME280;40219;55.838;-4.266;2022-08-19T00:00:48;100375.47;;;15.10;47.96
54321;BME280;40219;55.838;-4.266;2022-08-19T00:03:16;100376.68;;;15.08;47.33
54321;BME280;40219;55.838;-4.266;2022-08-19T00:05:43;100378.69;;;15.15;47.06
54321;BME280;40219;55.838;-4.266;2022-08-19T00:08:12;100373.89;;;15.15;47.08
54321;BME280;40219;55.838;-4.266;2022-08-19T00:10:40;100372.50;;;15.21;46.54
54321;BME280;40219;55.838;-4.266;2022-08-19T00:13:08;100370.67;;;15.25;46.56
54321;BME280;40219;55.838;-4.266;2022-08-19T00:15:36;100371.49;;;14.96;46.03
54321;BME280;40219;55.838;-4.266;2022-08-19T00:18:03;100370.14;;;14.70;46.20
54321;BME280;40219;55.838;-4.266;2022-08-19T00:20:30;100373.03;;;14.77;46.25
54321;BME280;40219;55.838;-4.266;2022-08-19T00:22:56;100378.85;;;14.68;46.27
54321;BME280;40219;55.838;-4.266;2022-08-19T00:25:24;100374.28;;;14.81;46.34
54321;BME280;40219;55.838;-4.266;2022-08-19T00:27:52;100378.34;;;15.07;46.15
54321;BME280;40219;55.838;-4.266;2022-08-19T00:30:20;100385.91;;;14.91;46.18
54321;BME280;40219;55.838;-4.266;2022-08-19T00:32:47;100384.08;;;14.96;45.57
54321;BME280;40219;55.838;-4.266;2022-08-19T00:35:15;100382.69;;;14.74;45.85
54321;BME280;40219;55.838;-4.266;2022-08-19T00:37:43;100386.38;;;14.88;45.60
54321;BME280;40219;55.838;-4.266;2022-08-19T00:40:12;100385.43;;;15.03;45.25
54321;BME280;40219;55.838;-4.266;2022-08-19T00:42:40;100391.31;;;15.12;45.22
54321;BME280;40219;55.838;-4.266;2022-08-19T00:45:15;100390.36;;;15.13;45.17
54321;BME280;40219;55.838;-4.266;2022-08-19T00:47:44;100396.19;;;14.93;44.81
54321;BME280;40219;55.838;-4.266;2022-08-19T00:50:14;100391.72;;;14.96;45.13
54321;BME280;40219;55.838;-4.266;2022-08-19T00:52:44;100396.75;;;15.28;45.05
54321;BME280;40219;55.838;-4.266;2022-08-19T00:55:16;100396.14;;;14.69;45.17
54321;BME280;40219;55.838;-4.266;2022-08-19T00:57:52;100391.43;;;14.83;45.05
54321;BME280;40219;55.838;-4.266;2022-08-19T01:00:20;100396.62;;;14.43;45.14
54321;BME280;40219;55.838;-4.266;2022-08-19T01:02:48;100393.42;;;14.37;45.24
54321;BME280;40219;55.838;-4.266;2022-08-19T01:05:19;100390.07;;;14.67;45.29
54321;BME280;40219;55.838;-4.266;2022-08-19T01:07:48;100392.44;;;14.61;45.36
54321;BME280;40219;55.838;-4.266;2022-08-19T01:10:19;100388.57;;;14.80;45.08
54321;BME280;40219;55.838;-4.266;2022-08-19T01:12:53;100395.34;;;14.81;45.09
54321;BME280;40219;55.838;-4.266;2022-08-19T01:15:27;100394.92;;;14.84;44.92
54321;BME280;40219;55.838;-4.266;2022-08-19T01:17:57;100402.43;;;14.77;44.87
54321;BME280;40219;55.838;-4.266;2022-08-19T01:20:27;100397.83;;;14.85;45.16
54321;BME280;40219;55.838;-4.266;2022-08-19T01:22:57;100405.23;;;15.03;45.24
54321;BME280;40219;55.838;-4.266;2022-08-19T01:25:29;100398.20;;;15.05;45.24
54321;BME280;40219;55.838;-4.266;2022-08-19T01:27:58;100403.45;;;14.53;45.33
54321;BME280;40219;55.838;-4.266;2022-08-19T01:30:32;100404.25;;;15.05;45.32
54321;BME280;40219;55.838;-4.266;2022-08-19T01:33:01;100400.09;;;14.83;45.33
54321;BME280;40219;55.838;-4.266;2022-08-19T01:35:30;100402.76;;;15.18;45.29
54321;BME280;40219;55.838;-4.266;2022-08-19T01:38:00;100413.58;;;14.66;45.24
54321;BME280;40219;55.838;-4.266;2022-08-19T01:40:30;100412.23;;;14.95;45.21
54321;BME280;40219;55.838;-4.266;2022-08-19T01:42:58;100414.06;;;14.92;45.30
54321;BME280;40219;55.838;-4.266;2022-08-19T01:45:28;100416.57;;;15.05;45.23
54321;BME280;40219;55.838;-4.266;2022-08-19T01:47:57;100410.95;;;14.88;45.18
54321;BME280;40219;55.838;-4.266;2022-08-19T01:50:24;100413.49;;;14.89;45.13
54321;BME280;40219;55.838;-4.266;2022-08-19T01:52:52;100411.86;;;14.95;45.22
54321;BME280;40219;55.838;-4.266;2022-08-19T01:55:21;100406.61;;;15.11;45.15
54321;BME280;40219;55.838;-4.266;2022-08-19T01:57:50;100408.78;;;15.12;44.88
54321;BME280;40219;55.838;-4.266;2022-08-19T02:00:22;100407.54;;;15.09;44.82
54321;BME280;40219;55.838;-4.266;2022-08-19T02:02:50;100415.76;;;15.01;44.80
54321;BME280;40219;55.838;-4.266;2022-08-19T02:05:18;100414.85;;;15.23;45.05
54321;BME280;40219;55.838;-4.266;2022-08-19T02:07:47;100419.99;;;15.15;44.92
54321;BME280;40219;55.838;-4.266;2022-08-19T02:10:17;100422.44;;;14.97;44.90
54321;BME280;40219;55.838;-4.266;2022-08-19T02:12:45;100419.62;;;15.39;44.95
54321;BME280;40219;55.838;-4.266;2022-08-19T02:15:14;100420.99;;;15.68;44.76
54321;BME280;40219;55.838;-4.266;2022-08-19T02:17:42;100421.24;;;15.04;44.65
54321;BME280;40219;55.838;-4.266;2022-08-19T02:20:10;100420.00;;;15.48;44.80
54321;BME280;40219;55.838;-4.266;2022-08-19T02:22:38;100422.87;;;15.33;44.43
54321;BME280;40219;55.838;-4.266;2022-08-19T02:25:06;100425.26;;;15.33;44.38
54321;BME280;40219;55.838;-4.266;2022-08-19T02:27:33;100423.87;;;15.51;44.30
54321;BME280;40219;55.838;-4.266;2022-08-19T02:30:06;100426.78;;;15.99;44.20
54321;BME280;40219;55.838;-4.266;2022-08-19T02:32:34;100425.16;;;15.41;44.39
54321;BME280;40219;55.838;-4.266;2022-08-19T02:35:02;100416.65;;;15.50;44.31
54321;BME280;40219;55.838;-4.266;2022-08-19T02:37:30;100415.55;;;15.44;44.21
54321;BME280;40219;55.838;-4.266;2022-08-19T02:39:59;100411.72;;;15.50;44.34
54321;BME280;40219;55.838;-4.266;2022-08-19T02:42:26;100416.52;;;15.96;44.15
54321;BME280;40219;55.838;-4.266;2022-08-19T02:44:56;100418.72;;;15.23;44.40
54321;BME280;40219;55.838;-4.266;2022-08-19T02:47:23;100417.97;;;15.53;44.48
54321;BME280;40219;55.838;-4.266;2022-08-19T02:49:51;100424.70;;;15.22;44.36
54321;BME280;40219;55.838;-4.266;2022-08-19T02:52:18;100416.20;;;15.51;44.36
54321;BME280;40219;55.838;-4.266;2022-08-19T02:54:46;100409.54;;;15.11;44.49
54321;BME280;40219;55.838;-4.266;2022-08-19T02:57:14;100411.75;;;15.12;44.58
54321;BME280;40219;55.838;-4.266;2022-08-19T02:59:41;100415.22;;;14.87;44.78
54321;BME280;40219;55.838;-4.266;2022-08-19T03:02:09;100416.92;;;15.32;44.85
54321;BME280;40219;55.838;-4.266;2022-08-19T03:04:37;100419.26;;;15.46;45.10
54321;BME280;40219;55.838;-4.266;2022-08-19T03:07:05;100423.28;;;15.23;45.13
54321;BME280;40219;55.838;-4.266;2022-08-19T03:09:33;100428.11;;;15.31;45.10
54321;BME280;40219;55.838;-4.266;2022-08-19T03:12:04;100428.92;;;14.99;45.31
54321;BME280;40219;55.838;-4.266;2022-08-19T03:14:31;100425.33;;;14.76;45.19
54321;BME280;40219;55.838;-4.266;2022-08-19T03:16:59;100429.20;;;14.69;45.30
54321;BME280;40219;55.838;-4.266;2022-08-19T03:19:27;100429.72;;;15.21;45.30
54321;BME280;40219;55.838;-4.266;2022-08-19T03:21:54;100427.22;;;14.56;45.46
54321;BME280;40219;55.838;-4.266;2022-08-19T03:24:21;100430.04;;;15.09;45.43
54321;BME280;40219;55.838;-4.266;2022-08-19T03:26:50;100422.20;;;15.11;45.37
54321;BME280;40219;55.838;-4.266;2022-08-19T03:29:19;100428.61;;;15.14;45.47
54321;BME280;40219;55.838;-4.266;2022-08-19T03:31:46;100428.24;;;14.90;45.31
54321;BME280;40219;55.838;-4.266;2022-08-19T03:34:16;100424.27;;;14.85;45.45
54321;BME280;40219;55.838;-4.266;2022-08-19T03:36:46;100429.37;;;15.15;45.41
54321;BME280;40219;55.838;-4.266;2022-08-19T03:39:15;100430.56;;;15.22;45.26
54321;BME280;40219;55.838;-4.266;2022-08-19T03:41:45;100433.17;;;14.87;45.27
54321;BME280;40219;55.838;-4.266;2022-08-19T03:44:14;100436.15;;;14.46;45.48
54321;BME280;40219;55.838;-4.266;2022-08-19T03:46:41;100434.80;;;14.77;45.60
54321;BME280;40219;55.838;-4.266;2022-08-19T03:49:09;100430.25;;;15.07;45.61
54321;BME280;40219;55.838;-4.266;2022-08-19T03:51:38;100434.71;;;15.07;45.47
54321;BME280;40219;55.838;-4.266;2022-08-19T03:54:10;100435.07;;;15.02;45.60
54321;BME280;40219;55.838;-4.266;2022-08-19T03:56:40;100434.62;;;14.81;45.61
54321;BME280;40219;55.838;-4.266;2022-08-19T03:59:10;100441.45;;;15.24;45.60
54321;BME280;40219;55.838;-4.266;2022-08-19T04:01:37;100441.65;;;14.55;45.67
54321;BME280;40219;55.838;-4.266;2022-08-19T04:04:05;100444.22;;;14.81;45.66
54321;BME280;40219;55.838;-4.266;2022-08-19T04:06:34;100442.82;;;14.54;45.80
54321;BME280;40219;55.838;-4.266;2022-08-19T04:09:05;100444.19;;;14.89;45.81
54321;BME280;40219;55.838;-4.266;2022-08-19T04:11:35;100446.13;;;14.75;46.11
54321;BME280;40219;55.838;-4.266;2022-08-19T04:14:03;100444.82;;;14.58;46.42
54321;BME280;40219;55.838;-4.266;2022-08-19T04:16:31;100446.12;;;14.75;46.30
54321;BME280;40219;55.838;-4.266;2022-08-19T04:19:01;100446.42;;;14.41;46.34
54321;BME280;40219;55.838;-4.266;2022-08-19T04:21:29;100444.62;;;14.95;46.36
54321;BME280;40219;55.838;-4.266;2022-08-19T04:23:58;100443.43;;;15.07;46.15
54321;BME280;40219;55.838;-4.266;2022-08-19T04:26:29;100440.12;;;14.99;45.95
54321;BME280;40219;55.838;-4.266;2022-08-19T04:28:58;100437.83;;;14.85;46.03
54321;BME280;40219;55.838;-4.266;2022-08-19T04:31:28;100439.06;;;14.91;46.08
54321;BME280;40219;55.838;-4.266;2022-08-19T04:33:58;100438.92;;;14.51;46.33
54321;BME280;40219;55.838;-4.266;2022-08-19T04:36:29;100444.53;;;14.73;46.60
54321;BME280;40219;55.838;-4.266;2022-08-19T04:38:59;100444.63;;;14.67;46.78
54321;BME280;40219;55.838;-4.266;2022-08-19T04:41:27;100448.55;;;14.65;46.88
54321;BME280;40219;55.838;-4.266;2022-08-19T04:43:55;100451.66;;;14.82;46.75
54321;BME280;40219;55.838;-4.266;2022-08-19T04:46:22;100452.59;;;14.67;46.66
54321;BME280;40219;55.838;-4.266;2022-08-19T04:48:50;100445.29;;;14.91;46.64
54321;BME280;40219;55.838;-4.266;2022-08-19T04:51:19;100447.26;;;14.46;46.52
54321;BME280;40219;55.838;-4.266;2022-08-19T04:53:47;100445.72;;;14.66;46.53
54321;BME280;40219;55.838;-4.266;2022-08-19T04:56:16;100441.71;;;14.60;46.74
54321;BME280;40219;55.838;-4.266;2022-08-19T04:58:44;100439.70;;;14.92;46.79
54321;BME280;40219;55.838;-4.266;2022-08-19T05:01:13;100443.43;;;15.07;46.52
54321;BME280;40219;55.838;-4.266;2022-08-19T05:03:40;100452.28;;;15.29;46.31
54321;BME280;40219;55.838;-4.266;2022-08-19T05:06:11;100456.66;;;15.29;46.06
54321;BME280;40219;55.838;-4.266;2022-08-19T05:08:41;100454.53;;;14.92;45.95
54321;BME280;40219;55.838;-4.266;2022-08-19T05:11:12;100460.64;;;15.53;45.68
54321;BME280;40219;55.838;-4.266;2022-08-19T05:13:40;100466.08;;;15.47;45.66
54321;BME280;40219;55.838;-4.266;2022-08-19T05:16:09;100467.89;;;15.43;45.50
54321;BME280;40219;55.838;-4.266;2022-08-19T05:18:37;100469.91;;;15.69;45.16
54321;BME280;40219;55.838;-4.266;2022-08-19T05:21:06;100472.56;;;15.77;44.81
54321;BME280;40219;55.838;-4.266;2022-08-19T05:23:34;100471.18;;;15.95;44.55
54321;BME280;40219;55.838;-4.266;2022-08-19T05:26:01;100471.37;;;16.01;44.54
54321;BME280;40219;55.838;-4.266;2022-08-19T05:28:29;100479.76;;;15.91;44.44
54321;BME280;40219;55.838;-4.266;2022-08-19T05:30:57;100481.81;;;16.15;44.32
54321;BME280;40219;55.838;-4.266;2022-08-19T05:33:25;100484.25;;;15.69;44.10
54321;BME280;40219;55.838;-4.266;2022-08-19T05:35:52;100491.83;;;15.94;44.09
54321;BME280;40219;55.838;-4.266;2022-08-19T05:38:19;100483.67;;;15.93;44.35
54321;BME280;40219;55.838;-4.266;2022-08-19T05:40:47;100487.97;;;16.07;44.12
54321;BME280;40219;55.838;-4.266;2022-08-19T05:43:15;100492.13;;;16.29;43.95
54321;BME280;40219;55.838;-4.266;2022-08-19T05:45:43;100492.87;;;16.53;43.77
54321;BME280;40219;55.838;-4.266;2022-08-19T05:48:12;100490.65;;;16.51;43.78
54321;BME280;40219;55.838;-4.266;2022-08-19T05:50:42;100494.95;;;16.55;43.69
54321;BME280;40219;55.838;-4.266;2022-08-19T05:53:09;100498.16;;;16.25;43.71
54321;BME280;40219;55.838;-4.266;2022-08-19T05:55:37;100491.70;;;16.33;43.42
54321;BME280;40219;55.838;-4.266;2022-08-19T05:58:05;100493.61;;;16.30;43.31
54321;BME280;40219;55.838;-4.266;2022-08-19T06:00:33;100496.63;;;16.41;43.32
54321;BME280;40219;55.838;-4.266;2022-08-19T06:03:00;100501.73;;;16.17;43.41
54321;BME280;40219;55.838;-4.266;2022-08-19T06:05:27;100499.54;;;16.90;43.32
54321;BME280;40219;55.838;-4.266;2022-08-19T06:07:55;100500.75;;;16.64;43.17
54321;BME280;40219;55.838;-4.266;2022-08-19T06:10:23;100503.92;;;16.67;42.92
54321;BME280;40219;55.838;-4.266;2022-08-19T06:12:51;100506.21;;;16.46;42.68
54321;BME280;40219;55.838;-4.266;2022-08-19T06:15:19;100502.45;;;16.37;42.51
54321;BME280;40219;55.838;-4.266;2022-08-19T06:17:48;100508.13;;;16.36;42.32
54321;BME280;40219;55.838;-4.266;2022-08-19T06:20:15;100513.49;;;16.01;42.65
54321;BME280;40219;55.838;-4.266;2022-08-19T06:22:46;100507.59;;;16.13;42.93
54321;BME280;40219;55.838;-4.266;2022-08-19T06:25:15;100507.31;;;16.07;43.02
54321;BME280;40219;55.838;-4.266;2022-08-19T06:27:43;100519.75;;;15.87;43.05
54321;BME280;40219;55.838;-4.266;2022-08-19T06:30:12;100520.33;;;16.25;43.00
54321;BME280;40219;55.838;-4.266;2022-08-19T06:32:40;100529.76;;;16.34;42.86
54321;BME280;40219;55.838;-4.266;2022-08-19T06:35:08;100522.74;;;16.58;42.86
54321;BME280;40219;55.838;-4.266;2022-08-19T06:37:37;100524.14;;;16.87;42.57
54321;BME280;40219;55.838;-4.266;2022-08-19T06:40:07;100529.19;;;16.68;41.97
54321;BME280;40219;55.838;-4.266;2022-08-19T06:42:34;100528.57;;;16.49;42.00
54321;BME280;40219;55.838;-4.266;2022-08-19T06:45:01;100526.50;;;16.59;41.90
54321;BME280;40219;55.838;-4.266;2022-08-19T06:47:28;100529.91;;;17.00;41.49
54321;BME280;40219;55.838;-4.266;2022-08-19T06:49:57;100529.53;;;17.02;41.46
54321;BME280;40219;55.838;-4.266;2022-08-19T06:52:25;100534.15;;;17.29;41.42
54321;BME280;40219;55.838;-4.266;2022-08-19T06:54:53;100534.75;;;17.30;41.91
54321;BME280;40219;55.838;-4.266;2022-08-19T06:57:20;100533.44;;;17.14;42.10
54321;BME280;40219;55.838;-4.266;2022-08-19T06:59:48;100537.80;;;17.08;42.17
54321;BME280;40219;55.838;-4.266;2022-08-19T07:02:20;100541.89;;;16.79;42.34
54321;BME280;40219;55.838;-4.266;2022-08-19T07:04:47;100542.24;;;17.34;42.53
54321;BME280;40219;55.838;-4.266;2022-08-19T07:07:15;100552.15;;;17.23;42.73
54321;BME280;40219;55.838;-4.266;2022-08-19T07:09:44;100558.56;;;17.25;42.75
54321;BME280;40219;55.838;-4.266;2022-08-19T07:12:13;100564.90;;;17.43;42.55
54321;BME280;40219;55.838;-4.266;2022-08-19T07:14:42;100563.13;;;17.24;42.39
54321;BME280;40219;55.838;-4.266;2022-08-19T07:17:11;100565.25;;;17.64;41.77
54321;BME280;40219;55.838;-4.266;2022-08-19T07:19:40;100571.63;;;17.64;41.83
54321;BME280;40219;55.838;-4.266;2022-08-19T07:22:09;100574.68;;;17.53;41.81
54321;BME280;40219;55.838;-4.266;2022-08-19T07:24:37;100575.45;;;17.86;42.10
54321;BME280;40219;55.838;-4.266;2022-08-19T07:27:05;100572.66;;;17.82;42.16
54321;BME280;40219;55.838;-4.266;2022-08-19T07:29:34;100571.58;;;17.78;41.63
54321;BME280;40219;55.838;-4.266;2022-08-19T07:32:04;100575.38;;;18.82;40.97
54321;BME280;40219;55.838;-4.266;2022-08-19T07:34:33;100575.97;;;18.48;40.61
54321;BME280;40219;55.838;-4.266;2022-08-19T07:37:00;100573.98;;;18.65;40.59
54321;BME280;40219;55.838;-4.266;2022-08-19T07:39:30;100580.55;;;18.57;40.15
54321;BME280;40219;55.838;-4.266;2022-08-19T07:41:59;100582.18;;;18.60;40.09
54321;BME280;40219;55.838;-4.266;2022-08-19T07:44:27;100587.80;;;18.57;39.86
54321;BME280;40219;55.838;-4.266;2022-08-19T07:46:56;100586.46;;;18.85;39.72
54321;BME280;40219;55.838;-4.266;2022-08-19T07:49:24;100588.05;;;18.56;39.76
54321;BME280;40219;55.838;-4.266;2022-08-19T07:51:53;100592.88;;;18.97;39.42
54321;BME280;40219;55.838;-4.266;2022-08-19T07:54:22;100597.48;;;19.00;38.88
54321;BME280;40219;55.838;-4.266;2022-08-19T07:56:51;100598.56;;;18.97;38.77
54321;BME280;40219;55.838;-4.266;2022-08-19T07:59:19;100601.93;;;19.13;38.81
54321;BME280;40219;55.838;-4.266;2022-08-19T08:01:48;100607.88;;;18.99;38.16
54321;BME280;40219;55.838;-4.266;2022-08-19T08:04:16;100615.49;;;18.65;38.13
54321;BME280;40219;55.838;-4.266;2022-08-19T08:06:44;100614.25;;;19.08;38.23
54321;BME280;40219;55.838;-4.266;2022-08-19T08:09:13;100619.03;;;19.61;38.03
54321;BME280;40219;55.838;-4.266;2022-08-19T08:11:43;100619.66;;;19.86;37.89
54321;BME280;40219;55.838;-4.266;2022-08-19T08:14:11;100617.83;;;20.16;37.35
54321;BME280;40219;55.838;-4.266;2022-08-19T08:16:39;100616.11;;;20.49;37.14
54321;BME280;40219;55.838;-4.266;2022-08-19T08:19:07;100618.31;;;20.59;37.54
54321;BME280;40219;55.838;-4.266;2022-08-19T08:21:35;100614.38;;;20.52;37.14
54321;BME280;40219;55.838;-4.266;2022-08-19T08:24:03;100619.11;;;20.77;36.54
54321;BME280;40219;55.838;-4.266;2022-08-19T08:26:30;100624.35;;;20.59;36.65
54321;BME280;40219;55.838;-4.266;2022-08-19T08:28:58;100624.56;;;20.69;35.90
54321;BME280;40219;55.838;-4.266;2022-08-19T08:31:25;100614.63;;;20.71;36.35
54321;BME280;40219;55.838;-4.266;2022-08-19T08:33:52;100620.44;;;21.04;36.10
54321;BME280;40219;55.838;-4.266;2022-08-19T08:36:19;100626.82;;;21.33;36.06
54321;BME280;40219;55.838;-4.266;2022-08-19T08:38:46;100628.37;;;21.42;35.43
54321;BME280;40219;55.838;-4.266;2022-08-19T08:41:21;100623.17;;;21.22;35.60
54321;BME280;40219;55.838;-4.266;2022-08-19T08:43:51;100619.94;;;21.08;35.65
54321;BME280;40219;55.838;-4.266;2022-08-19T08:46:25;100632.76;;;20.63;35.87
54321;BME280;40219;55.838;-4.266;2022-08-19T08:49:00;100631.37;;;19.94;36.63
54321;BME280;40219;55.838;-4.266;2022-08-19T08:51:33;100633.56;;;19.73;37.69
54321;BME280;40219;55.838;-4.266;2022-08-19T08:54:05;100629.57;;;19.34;38.42
54321;BME280;40219;55.838;-4.266;2022-08-19T08:56:33;100631.83;;;19.09;38.60
54321;BME280;40219;55.838;-4.266;2022-08-19T08:59:04;100637.66;;;18.84;39.18
54321;BME280;40219;55.838;-4.266;2022-08-19T09:01:32;100635.19;;;19.56;39.33
54321;BME280;40219;55.838;-4.266;2022-08-19T09:03:59;100632.24;;;19.44;39.04
54321;BME280;40219;55.838;-4.266;2022-08-19T09:06:32;100635.48;;;18.91;40.09
54321;BME280;40219;55.838;-4.266;2022-08-19T09:09:10;100638.43;;;19.38;39.90
54321;BME280;40219;55.838;-4.266;2022-08-19T09:11:48;100636.49;;;18.97;39.51
54321;BME280;40219;55.838;-4.266;2022-08-19T09:14:35;100631.63;;;19.20;39.73
54321;BME280;40219;55.838;-4.266;2022-08-19T09:17:03;100635.78;;;19.37;39.72
54321;BME280;40219;55.838;-4.266;2022-08-19T09:19:30;100635.76;;;19.41;38.49
54321;BME280;40219;55.838;-4.266;2022-08-19T09:21:58;100638.12;;;19.87;38.48
54321;BME280;40219;55.838;-4.266;2022-08-19T09:24:25;100637.98;;;20.58;37.37
54321;BME280;40219;55.838;-4.266;2022-08-19T09:26:52;100638.34;;;20.70;36.45
54321;BME280;40219;55.838;-4.266;2022-08-19T09:29:19;100644.45;;;20.74;36.91
54321;BME280;40219;55.838;-4.266;2022-08-19T09:31:47;100643.12;;;20.92;36.54
54321;BME280;40219;55.838;-4.266;2022-08-19T09:34:14;100628.38;;;20.93;35.81
54321;BME280;40219;55.838;-4.266;2022-08-19T09:36:42;100638.19;;;21.17;35.31
54321;BME280;40219;55.838;-4.266;2022-08-19T09:39:10;100634.75;;;21.05;34.83
54321;BME280;40219;55.838;-4.266;2022-08-19T09:41:38;100643.09;;;21.37;33.96
54321;BME280;40219;55.838;-4.266;2022-08-19T09:44:06;100636.70;;;21.35;34.03
54321;BME280;40219;55.838;-4.266;2022-08-19T09:46:34;100635.62;;;21.67;33.54
54321;BME280;40219;55.838;-4.266;2022-08-19T09:49:02;100629.45;;;21.33;33.55
54321;BME280;40219;55.838;-4.266;2022-08-19T09:51:29;100630.23;;;22.11;33.24
54321;BME280;40219;55.838;-4.266;2022-08-19T09:54:01;100627.75;;;21.95;32.88
54321;BME280;40219;55.838;-4.266;2022-08-19T09:56:30;100624.77;;;21.87;32.82
54321;BME280;40219;55.838;-4.266;2022-08-19T09:58:58;100628.09;;;21.66;33.19
54321;BME280;40219;55.838;-4.266;2022-08-19T10:01:27;100634.44;;;21.68;32.04
54321;BME280;40219;55.838;-4.266;2022-08-19T10:03:57;100630.52;;;22.30;31.56
54321;BME280;40219;55.838;-4.266;2022-08-19T10:06:29;100624.02;;;22.25;31.84
54321;BME280;40219;55.838;-4.266;2022-08-19T10:08:57;100625.26;;;22.81;30.99
54321;BME280;40219;55.838;-4.266;2022-08-19T10:11:25;100625.79;;;22.57;30.40
54321;BME280;40219;55.838;-4.266;2022-08-19T10:13:53;100622.68;;;22.88;30.49
54321;BME280;40219;55.838;-4.266;2022-08-19T10:16:22;100629.06;;;22.88;30.21
54321;BME280;40219;55.838;-4.266;2022-08-19T10:18:52;100630.88;;;22.42;30.21
54321;BME280;40219;55.838;-4.266;2022-08-19T10:21:23;100624.29;;;22.39;30.21
54321;BME280;40219;55.838;-4.266;2022-08-19T10:23:54;100638.07;;;22.37;30.56
54321;BME280;40219;55.838;-4.266;2022-08-19T10:26:24;100627.50;;;21.83;31.46
54321;BME280;40219;55.838;-4.266;2022-08-19T10:28:52;100620.50;;;22.30;31.33
54321;BME280;40219;55.838;-4.266;2022-08-19T10:31:23;100627.03;;;22.00;31.06
54321;BME280;40219;55.838;-4.266;2022-08-19T10:33:52;100627.03;;;22.05;31.23
54321;BME280;40219;55.838;-4.266;2022-08-19T10:36:21;100622.00;;;22.28;30.78
54321;BME280;40219;55.838;-4.266;2022-08-19T10:38:51;100623.31;;;22.25;30.99
54321;BME280;40219;55.838;-4.266;2022-08-19T10:41:21;100623.35;;;21.94;31.07
54321;BME280;40219;55.838;-4.266;2022-08-19T10:43:51;100622.70;;;21.38;31.92
54321;BME280;40219;55.838;-4.266;2022-08-19T10:46:19;100617.83;;;21.22;33.75
54321;BME280;40219;55.838;-4.266;2022-08-19T10:48:46;100618.04;;;20.64;34.89
54321;BME280;40219;55.838;-4.266;2022-08-19T10:51:15;100619.36;;;19.85;36.69
54321;BME280;40219;55.838;-4.266;2022-08-19T10:53:43;100624.62;;;20.03;36.47
54321;BME280;40219;55.838;-4.266;2022-08-19T10:56:12;100628.40;;;20.31;36.19
54321;BME280;40219;55.838;-4.266;2022-08-19T10:58:40;100629.77;;;19.53;36.65
54321;BME280;40219;55.838;-4.266;2022-08-19T11:01:08;100631.69;;;19.82;36.43
54321;BME280;40219;55.838;-4.266;2022-08-19T11:03:35;100632.18;;;20.34;35.60
54321;BME280;40219;55.838;-4.266;2022-08-19T11:06:05;100635.49;;;20.28;35.28
54321;BME280;40219;55.838;-4.266;2022-08-19T11:08:34;100624.85;;;20.09;35.03
54321;BME280;40219;55.838;-4.266;2022-08-19T11:11:03;100638.11;;;20.42;34.54
54321;BME280;40219;55.838;-4.266;2022-08-19T11:13:34;100620.74;;;20.72;33.79
54321;BME280;40219;55.838;-4.266;2022-08-19T11:16:04;100620.42;;;20.41;33.86
54321;BME280;40219;55.838;-4.266;2022-08-19T11:18:32;100627.29;;;20.91;33.76
54321;BME280;40219;55.838;-4.266;2022-08-19T11:21:07;100625.90;;;20.91;33.80
54321;BME280;40219;55.838;-4.266;2022-08-19T11:23:34;100631.83;;;21.53;33.38
54321;BME280;40219;55.838;-4.266;2022-08-19T11:26:02;100626.99;;;21.23;33.21
54321;BME280;40219;55.838;-4.266;2022-08-19T11:28:30;100619.41;;;20.98;34.12
54321;BME280;40219;55.838;-4.266;2022-08-19T11:30:59;100615.97;;;20.76;35.59
54321;BME280;40219;55.838;-4.266;2022-08-19T11:33:27;100615.66;;;19.89;36.59
54321;BME280;40219;55.838;-4.266;2022-08-19T11:35:56;100620.33;;;20.19;36.89
54321;BME280;40219;55.838;-4.266;2022-08-19T11:38:23;100615.89;;;19.82;36.18
54321;BME280;40219;55.838;-4.266;2022-08-19T11:40:56;100611.00;;;19.94;36.12
54321;BME280;40219;55.838;-4.266;2022-08-19T11:43:23;100614.07;;;19.41;36.16
54321;BME280;40219;55.838;-4.266;2022-08-19T11:45:50;100603.11;;;19.45;36.05
54321;BME280;40219;55.838;-4.266;2022-08-19T11:48:17;100601.69;;;20.07;35.18
54321;BME280;40219;55.838;-4.266;2022-08-19T11:50:44;100601.61;;;20.63;34.65
54321;BME280;40219;55.838;-4.266;2022-08-19T11:53:12;100606.98;;;21.14;33.65
54321;BME280;40219;55.838;-4.266;2022-08-19T11:55:40;100604.59;;;21.64;33.01
54321;BME280;40219;55.838;-4.266;2022-08-19T11:58:08;100634.71;;;21.72;31.73
54321;BME280;40219;55.838;-4.266;2022-08-19T12:00:37;100617.76;;;21.91;31.77
54321;BME280;40219;55.838;-4.266;2022-08-19T12:03:05;100617.17;;;21.64;31.53
54321;BME280;40219;55.838;-4.266;2022-08-19T12:05:32;100601.66;;;21.31;31.61
54321;BME280;40219;55.838;-4.266;2022-08-19T12:08:00;100611.07;;;21.45;32.15
54321;BME280;40219;55.838;-4.266;2022-08-19T12:10:26;100622.73;;;21.07;31.07
54321;BME280;40219;55.838;-4.266;2022-08-19T12:12:54;100605.10;;;21.66;31.62
54321;BME280;40219;55.838;-4.266;2022-08-19T12:15:22;100597.23;;;21.69;31.64
54321;BME280;40219;55.838;-4.266;2022-08-19T12:17:50;100598.32;;;21.74;31.92
54321;BME280;40219;55.838;-4.266;2022-08-19T12:20:18;100597.67;;;21.69;31.14
54321;BME280;40219;55.838;-4.266;2022-08-19T12:22:46;100597.95;;;21.44;31.77
54321;BME280;40219;55.838;-4.266;2022-08-19T12:25:13;100595.17;;;21.35;31.85
54321;BME280;40219;55.838;-4.266;2022-08-19T12:27:41;100603.36;;;21.38;31.67
54321;BME280;40219;55.838;-4.266;2022-08-19T12:30:11;100598.04;;;21.46;31.06
54321;BME280;40219;55.838;-4.266;2022-08-19T12:32:38;100592.60;;;22.70;30.17
54321;BME280;40219;55.838;-4.266;2022-08-19T12:35:06;100595.83;;;22.29;29.56
54321;BME280;40219;55.838;-4.266;2022-08-19T12:37:34;100595.70;;;22.61;29.44
54321;BME280;40219;55.838;-4.266;2022-08-19T12:40:04;100597.76;;;22.48;29.52
54321;BME280;40219;55.838;-4.266;2022-08-19T12:42:32;100601.67;;;21.49;29.75
54321;BME280;40219;55.838;-4.266;2022-08-19T12:44:59;100608.07;;;21.66;30.25
54321;BME280;40219;55.838;-4.266;2022-08-19T12:47:27;100631.72;;;21.98;30.54